createdAt,value
2023-03-12T00:02:22.274Z,97158.80
2023-03-12T00:04:48.958Z,97161.20
2023-03-12T00:07:15.549Z,97161.00
2023-03-12T00:09:42.128Z,97163.80
2023-03-12T00:12:09.342Z,97168.00
2023-03-12T00:14:36.730Z,97171.60
2023-03-12T00:17:03.772Z,97168.60
2023-03-12T00:19:30.693Z,97169.20
2023-03-12T00:21:57.351Z,97163.80
2023-03-12T00:24:24.133Z,97166.00
2023-03-12T00:26:50.730Z,97165.20
2023-03-12T00:29:17.532Z,97171.00
2023-03-12T00:31:44.334Z,97173.80
2023-03-12T00:34:11.496Z,97170.00
2023-03-12T00:36:40.686Z,97172.20
2023-03-12T00:39:07.780Z,97178.60
2023-03-12T00:41:34.725Z,97184.00
2023-03-12T00:44:02.087Z,97185.80
2023-03-12T00:46:28.843Z,97188.80
2023-03-12T00:48:55.729Z,97188.20
2023-03-12T00:51:22.893Z,97188.00
2023-03-12T00:53:49.866Z,97192.60
2023-03-12T00:56:16.661Z,97194.20
2023-03-12T00:58:43.317Z,97195.40
2023-03-12T01:01:11.416Z,97191.60
2023-03-12T01:03:38.390Z,97190.60
2023-03-12T01:06:06.464Z,97189.40
2023-03-12T01:08:33.399Z,97193.40
2023-03-12T01:11:00.332Z,97188.20
2023-03-12T01:13:27.131Z,97190.00
2023-03-12T01:15:53.728Z,97196.80
2023-03-12T01:18:20.454Z,97195.80
2023-03-12T01:20:47.968Z,97197.00
2023-03-12T01:23:15.062Z,97196.80
2023-03-12T01:25:42.099Z,97198.20
2023-03-12T01:28:08.749Z,97197.80
2023-03-12T01:30:35.412Z,97199.40
2023-03-12T01:33:02.033Z,97199.20
2023-03-12T01:35:28.758Z,97196.80
2023-03-12T01:37:56.139Z,97193.60
2023-03-12T01:40:29.001Z,97190.00
2023-03-12T01:42:58.410Z,97185.80
2023-03-12T01:46:21.821Z,97191.40
2023-03-12T01:48:57.747Z,97197.00
2023-03-12T01:51:37.370Z,97199.80
2023-03-12T01:54:12.471Z,97198.60
2023-03-12T01:56:40.100Z,97203.00
2023-03-12T01:59:21.683Z,97197.00
2023-03-12T02:01:50.170Z,97200.20
2023-03-12T02:04:22.478Z,97196.40
2023-03-12T02:07:08.949Z,97196.40
2023-03-12T02:09:41.726Z,97198.00
2023-03-12T02:12:09.477Z,97194.60
2023-03-12T02:14:38.555Z,97199.60
2023-03-12T02:17:06.792Z,97209.80
2023-03-12T02:20:07.957Z,97208.40
2023-03-12T02:22:37.999Z,97205.40
2023-03-12T02:25:40.822Z,97209.40
2023-03-12T02:28:13.777Z,97211.40
2023-03-12T02:30:44.904Z,97208.40
2023-03-12T02:33:12.696Z,97209.80
2023-03-12T02:35:39.467Z,97213.20
2023-03-12T02:38:40.177Z,97212.60
2023-03-12T02:41:22.140Z,97215.40
2023-03-12T02:44:20.139Z,97220.40
2023-03-12T02:46:55.360Z,97225.00
2023-03-12T02:49:25.552Z,97226.80
2023-03-12T02:51:52.628Z,97228.60
2023-03-12T02:54:21.525Z,97236.20
2023-03-12T02:56:50.085Z,97234.60
2023-03-12T02:59:18.128Z,97238.60
2023-03-12T03:01:45.198Z,97233.60
2023-03-12T03:04:13.778Z,97242.00
2023-03-12T03:06:44.365Z,97246.80
2023-03-12T03:09:11.174Z,97250.20
2023-03-12T03:11:38.085Z,97245.20
2023-03-12T03:14:06.952Z,97250.60
2023-03-12T03:16:34.789Z,97249.00
2023-03-12T03:19:02.342Z,97249.80
2023-03-12T03:21:29.413Z,97254.40
2023-03-12T03:23:56.024Z,97257.20
2023-03-12T03:26:24.420Z,97256.60
2023-03-12T03:28:51.878Z,97254.80
2023-03-12T03:31:20.414Z,97263.60
2023-03-12T03:33:47.578Z,97263.20
2023-03-12T03:36:15.365Z,97262.60
2023-03-12T03:39:05.213Z,97265.00
2023-03-12T03:41:33.020Z,97268.20
2023-03-12T03:43:59.936Z,97262.00
2023-03-12T03:46:27.473Z,97260.00
2023-03-12T03:48:59.130Z,97261.00
2023-03-12T03:51:26.810Z,97257.60
2023-03-12T03:53:56.124Z,97256.20
2023-03-12T03:56:23.125Z,97260.20
2023-03-12T03:58:50.056Z,97259.60
2023-03-12T04:01:18.537Z,97261.80
2023-03-12T04:03:45.922Z,97261.80
2023-03-12T04:06:13.472Z,97265.00
2023-03-12T04:08:40.626Z,97267.60
2023-03-12T04:11:18.025Z,97264.00
2023-03-12T04:13:46.312Z,97264.00
2023-03-12T04:16:15.666Z,97265.80
2023-03-12T04:18:43.523Z,97274.00
2023-03-12T04:21:14.431Z,97273.60
2023-03-12T04:23:42.088Z,97274.00
2023-03-12T04:26:09.553Z,97280.00
2023-03-12T04:28:37.771Z,97277.60
2023-03-12T04:31:07.717Z,97282.20
2023-03-12T04:33:41.000Z,97279.80
2023-03-12T04:36:09.266Z,97284.80
2023-03-12T04:38:37.485Z,97282.60
2023-03-12T04:41:12.865Z,97286.00
2023-03-12T04:43:44.212Z,97287.80
2023-03-12T04:46:11.849Z,97294.40
2023-03-12T04:48:39.674Z,97300.40
2023-03-12T04:51:07.255Z,97302.40
2023-03-12T04:53:34.542Z,97302.60
2023-03-12T04:56:02.117Z,97299.60
2023-03-12T04:58:29.465Z,97310.60
2023-03-12T05:00:56.914Z,97311.80
2023-03-12T05:03:23.937Z,97316.40
2023-03-12T05:05:51.042Z,97313.40
2023-03-12T05:08:18.111Z,97311.60
2023-03-12T05:10:45.692Z,97313.80
2023-03-12T05:13:20.653Z,97318.40
2023-03-12T05:15:50.714Z,97322.40
2023-03-12T05:18:20.370Z,97322.60
2023-03-12T05:20:47.998Z,97318.00
2023-03-12T05:23:14.973Z,97326.00
2023-03-12T05:25:41.916Z,97326.60
2023-03-12T05:28:09.445Z,97333.80
2023-03-12T05:30:36.916Z,97332.80
2023-03-12T05:33:03.920Z,97334.80
2023-03-12T05:35:31.487Z,97333.60
2023-03-12T05:37:58.353Z,97337.80
2023-03-12T05:40:24.958Z,97341.40
2023-03-12T05:42:53.560Z,97348.00
2023-03-12T05:45:20.595Z,97350.40
2023-03-12T05:47:49.844Z,97352.00
2023-03-12T05:50:16.975Z,97351.80
2023-03-12T05:52:43.815Z,97351.60
2023-03-12T05:55:11.151Z,97346.00
2023-03-12T05:57:38.085Z,97352.20
2023-03-12T06:00:06.882Z,97354.00
2023-03-12T06:02:40.230Z,97347.40
2023-03-12T06:05:10.435Z,97348.60
2023-03-12T06:07:37.850Z,97351.00
2023-03-12T06:10:05.646Z,97352.80
2023-03-12T06:12:32.243Z,97356.80
2023-03-12T06:14:58.906Z,97353.20
2023-03-12T06:17:28.510Z,97349.20
2023-03-12T06:19:55.151Z,97359.20
2023-03-12T06:22:22.103Z,97356.80
2023-03-12T06:24:49.139Z,97361.20
2023-03-12T06:27:17.702Z,97359.20
2023-03-12T06:29:46.958Z,97360.20
2023-03-12T06:32:15.072Z,97358.80
2023-03-12T06:34:41.706Z,97359.40
2023-03-12T06:37:08.307Z,97359.40
2023-03-12T06:39:34.946Z,97358.80
2023-03-12T06:42:01.980Z,97357.60
2023-03-12T06:44:28.570Z,97353.20
2023-03-12T06:46:55.759Z,97352.80
2023-03-12T06:49:22.744Z,97359.00
2023-03-12T06:51:49.354Z,97357.60
2023-03-12T06:54:16.342Z,97358.20
2023-03-12T06:56:43.150Z,97359.40
2023-03-12T06:59:09.754Z,97356.60
2023-03-12T07:01:36.396Z,97361.60
2023-03-12T07:04:03.758Z,97357.80
2023-03-12T07:06:30.482Z,97358.60
2023-03-12T07:08:57.044Z,97362.20
2023-03-12T07:11:23.647Z,97363.60
2023-03-12T07:13:51.542Z,97360.60
2023-03-12T07:16:18.250Z,97356.00
2023-03-12T07:18:44.919Z,97361.40
2023-03-12T07:21:11.547Z,97364.20
2023-03-12T07:23:38.172Z,97359.00
2023-03-12T07:26:06.249Z,97354.80
2023-03-12T07:28:32.858Z,97353.60
2023-03-12T07:31:04.864Z,97358.20
2023-03-12T07:33:32.089Z,97354.20
2023-03-12T07:35:58.995Z,97351.20
2023-03-12T07:38:26.001Z,97356.00
2023-03-12T07:40:58.146Z,97356.20
2023-03-12T07:43:25.745Z,97355.00
2023-03-12T07:45:54.216Z,97355.20
2023-03-12T07:48:21.011Z,97358.60
2023-03-12T07:50:48.795Z,97360.00
2023-03-12T07:53:16.361Z,97362.40
2023-03-12T07:55:46.090Z,97359.40
2023-03-12T07:58:13.901Z,97363.60
2023-03-12T08:00:40.652Z,97370.20
2023-03-12T08:03:07.571Z,97379.40
2023-03-12T08:05:34.568Z,97385.00
2023-03-12T08:08:01.175Z,97387.00
2023-03-12T08:10:28.432Z,97387.40
2023-03-12T08:12:55.235Z,97388.40
2023-03-12T08:15:22.007Z,97383.20
2023-03-12T08:17:49.067Z,97380.00
2023-03-12T08:20:16.140Z,97382.60
2023-03-12T08:22:42.808Z,97378.20
2023-03-12T08:25:10.567Z,97379.00
2023-03-12T08:27:37.172Z,97381.60
2023-03-12T08:30:06.514Z,97381.00
2023-03-12T08:32:33.448Z,97383.60
2023-03-12T08:35:00.152Z,97382.40
2023-03-12T08:37:26.793Z,97380.20
2023-03-12T08:39:53.608Z,97377.60
2023-03-12T08:42:20.207Z,97381.40
2023-03-12T08:44:46.876Z,97380.80
2023-03-12T08:47:13.468Z,97379.20
2023-03-12T08:49:40.289Z,97375.20
2023-03-12T08:52:07.153Z,97370.60
2023-03-12T08:54:33.720Z,97376.80
2023-03-12T08:57:00.494Z,97374.00
2023-03-12T08:59:27.381Z,97379.20
2023-03-12T09:01:54.411Z,97376.60
2023-03-12T09:04:21.266Z,97376.80
2023-03-12T09:06:48.060Z,97378.00
2023-03-12T09:09:14.842Z,97376.60
2023-03-12T09:11:42.323Z,97380.20
2023-03-12T09:16:57.475Z,97381.00
2023-03-12T09:19:24.429Z,97378.80
2023-03-12T09:21:50.972Z,97380.00
2023-03-12T09:24:17.578Z,97384.60
2023-03-12T09:26:44.188Z,97386.80
2023-03-12T09:29:10.833Z,97383.60
2023-03-12T09:31:37.635Z,97380.60
2023-03-12T09:34:04.944Z,97383.20
2023-03-12T09:36:32.683Z,97384.60
2023-03-12T09:38:59.423Z,97378.40
2023-03-12T09:41:31.356Z,97370.80
2023-03-12T09:44:00.123Z,97372.40
2023-03-12T09:46:48.567Z,97375.60
2023-03-12T09:49:41.044Z,97373.60
2023-03-12T09:52:29.662Z,97368.00
2023-03-12T09:55:21.895Z,97368.80
2023-03-12T09:57:51.425Z,97368.20
2023-03-12T10:00:26.091Z,97362.60
2023-03-12T10:03:33.628Z,97357.80
2023-03-12T10:06:17.316Z,97364.20
2023-03-12T10:09:11.988Z,97366.00
2023-03-12T10:11:50.629Z,97364.00
2023-03-12T10:14:45.465Z,97359.60
2023-03-12T10:17:38.161Z,97357.40
2023-03-12T10:20:47.971Z,97353.40
2023-03-12T10:23:44.555Z,97351.60
2023-03-12T10:26:25.370Z,97350.60
2023-03-12T10:29:00.378Z,97342.40
2023-03-12T10:31:35.834Z,97345.80
2023-03-12T10:34:19.766Z,97347.00
2023-03-12T10:36:46.812Z,97347.20
2023-03-12T10:39:19.233Z,97349.80
2023-03-12T10:41:48.788Z,97348.80
2023-03-12T10:44:24.465Z,97353.00
2023-03-12T10:47:05.999Z,97357.20
2023-03-12T10:49:36.813Z,97360.40
2023-03-12T10:52:06.223Z,97355.40
2023-03-12T10:54:41.362Z,97355.20
2023-03-12T10:57:09.342Z,97349.00
2023-03-12T10:59:39.155Z,97347.60
2023-03-12T11:02:24.731Z,97349.00
2023-03-12T11:04:53.343Z,97349.60
2023-03-12T11:07:44.052Z,97345.20
2023-03-12T11:10:11.424Z,97346.00
2023-03-12T11:12:40.022Z,97348.60
2023-03-12T11:15:22.056Z,97351.60
2023-03-12T11:17:49.171Z,97354.60
2023-03-12T11:20:21.966Z,97352.80
2023-03-12T11:22:51.209Z,97358.60
2023-03-12T11:25:27.238Z,97350.80
2023-03-12T11:27:59.981Z,97353.20
2023-03-12T11:30:38.619Z,97353.00
2023-03-12T11:33:06.276Z,97344.00
2023-03-12T11:36:10.119Z,97342.60
2023-03-12T11:39:12.128Z,97344.80
2023-03-12T11:42:16.339Z,97347.40
2023-03-12T11:45:29.671Z,97347.80
2023-03-12T11:48:23.316Z,97346.00
2023-03-12T11:51:09.543Z,97344.80
2023-03-12T11:54:06.562Z,97346.00
2023-03-12T11:56:52.693Z,97339.80
2023-03-12T11:59:52.372Z,97337.80
2023-03-12T12:03:07.263Z,97337.80
2023-03-12T12:05:55.352Z,97336.00
2023-03-12T12:08:59.174Z,97333.80
2023-03-12T12:11:47.028Z,97337.60
2023-03-12T12:14:57.770Z,97336.60
2023-03-12T12:17:56.254Z,97336.80
2023-03-12T12:21:02.181Z,97336.20
2023-03-12T12:23:34.470Z,97344.60
2023-03-12T12:26:09.928Z,97346.20
2023-03-12T12:28:54.148Z,97349.20
2023-03-12T12:31:31.690Z,97349.80
2023-03-12T12:34:23.141Z,97345.60
2023-03-12T12:37:01.977Z,97350.80
2023-03-12T12:39:40.204Z,97348.80
2023-03-12T12:42:19.481Z,97347.80
2023-03-12T12:44:53.924Z,97347.20
2023-03-12T12:47:37.678Z,97348.00
2023-03-12T12:50:05.109Z,97345.40
2023-03-12T12:52:32.865Z,97347.20
2023-03-12T12:55:54.017Z,97345.80
2023-03-12T12:58:48.328Z,97348.20
2023-03-12T13:01:17.606Z,97340.00
2023-03-12T13:03:47.481Z,97344.20
2023-03-12T13:06:14.129Z,97342.80
2023-03-12T13:08:42.246Z,97343.40
2023-03-12T13:11:18.680Z,97342.60
2023-03-12T13:14:11.252Z,97344.60
2023-03-12T13:16:43.987Z,97349.00
2023-03-12T13:19:13.707Z,97348.80
2023-03-12T13:21:40.485Z,97350.20
2023-03-12T13:24:30.085Z,97353.60
2023-03-12T13:27:21.119Z,97367.00
2023-03-12T13:29:55.212Z,97361.80
2023-03-12T13:32:59.033Z,97360.60
2023-03-12T13:35:25.595Z,97364.60
2023-03-12T13:37:52.112Z,97365.20
2023-03-12T13:40:33.679Z,97367.40
2023-03-12T13:43:09.506Z,97361.80
2023-03-12T13:46:02.160Z,97362.80
2023-03-12T13:48:29.261Z,97363.60
2023-03-12T13:51:12.312Z,97358.00
2023-03-12T13:53:40.852Z,97353.40
2023-03-12T13:56:16.938Z,97356.60
2023-03-12T13:58:59.276Z,97355.80
2023-03-12T14:01:36.578Z,97359.20
2023-03-12T14:04:18.695Z,97355.00
2023-03-12T14:06:59.150Z,97352.00
2023-03-12T14:09:32.188Z,97353.60
2023-03-12T14:12:13.178Z,97357.00
2023-03-12T14:15:08.346Z,97356.60
2023-03-12T14:17:38.669Z,97353.00
2023-03-12T14:20:26.226Z,97340.60
2023-03-12T14:23:04.357Z,97337.20
2023-03-12T14:25:39.596Z,97330.00
2023-03-12T14:28:24.365Z,97335.20
2023-03-12T14:31:13.905Z,97342.40
2023-03-12T14:33:59.500Z,97335.80
2023-03-12T14:36:56.094Z,97331.20
2023-03-12T14:39:36.784Z,97328.20
2023-03-12T14:42:08.011Z,97320.80
2023-03-12T14:44:39.751Z,97319.80
2023-03-12T14:47:11.598Z,97318.20
2023-03-12T14:49:45.704Z,97320.00
2023-03-12T14:52:20.902Z,97311.20
2023-03-12T14:55:04.726Z,97306.60
2023-03-12T14:57:31.685Z,97307.20
2023-03-12T15:00:01.431Z,97303.20
2023-03-12T15:02:31.917Z,97303.80
2023-03-12T15:05:02.288Z,97308.00
2023-03-12T15:07:40.188Z,97306.60
2023-03-12T15:10:17.254Z,97309.20
2023-03-12T15:12:45.939Z,97311.40
2023-03-12T15:15:45.663Z,97329.40
2023-03-12T15:18:32.975Z,97329.60
2023-03-12T15:21:03.030Z,97325.80
2023-03-12T15:23:33.550Z,97326.40
2023-03-12T15:26:19.214Z,97324.00
2023-03-12T15:29:14.982Z,97329.00
2023-03-12T15:31:46.769Z,97329.40
2023-03-12T15:34:32.729Z,97329.80
2023-03-12T15:37:04.679Z,97340.40
2023-03-12T15:39:38.189Z,97339.00
2023-03-12T15:42:15.774Z,97333.00
2023-03-12T15:44:54.547Z,97333.80
2023-03-12T15:47:32.745Z,97333.80
2023-03-12T15:50:11.040Z,97331.20
2023-03-12T15:52:37.838Z,97327.60
2023-03-12T15:55:10.500Z,97334.40
2023-03-12T15:57:52.892Z,97328.80
2023-03-12T16:00:25.754Z,97323.60
2023-03-12T16:02:58.828Z,97317.20
2023-03-12T16:05:39.322Z,97316.20
2023-03-12T16:08:26.565Z,97317.00
2023-03-12T16:10:53.291Z,97308.20
2023-03-12T16:13:28.273Z,97297.40
2023-03-12T16:15:55.208Z,97296.80
2023-03-12T16:18:23.120Z,97298.20
2023-03-12T16:20:52.705Z,97299.60
2023-03-12T16:23:20.213Z,97305.40
2023-03-12T16:25:56.459Z,97304.60
2023-03-12T16:28:24.206Z,97306.80
2023-03-12T16:30:52.536Z,97308.40
2023-03-12T16:33:23.593Z,97311.20
2023-03-12T16:35:51.533Z,97314.40
2023-03-12T16:38:18.240Z,97318.80
2023-03-12T16:40:49.112Z,97323.00
2023-03-12T16:43:29.248Z,97320.40
2023-03-12T16:45:57.932Z,97320.00
2023-03-12T16:48:26.490Z,97325.00
2023-03-12T16:50:56.907Z,97327.20
2023-03-12T16:53:24.202Z,97325.60
2023-03-12T16:55:53.553Z,97326.40
2023-03-12T16:58:23.303Z,97331.40
2023-03-12T17:00:53.204Z,97329.40
2023-03-12T17:03:28.681Z,97333.00
2023-03-12T17:05:55.548Z,97330.00
2023-03-12T17:08:22.130Z,97328.00
2023-03-12T17:10:48.802Z,97332.40
2023-03-12T17:13:27.506Z,97332.60
2023-03-12T17:15:55.992Z,97332.60
2023-03-12T17:18:23.132Z,97331.60
2023-03-12T17:20:51.846Z,97329.00
2023-03-12T17:23:19.434Z,97330.20
2023-03-12T17:25:46.469Z,97332.00
2023-03-12T17:28:15.371Z,97331.60
2023-03-12T17:30:43.107Z,97336.40
2023-03-12T17:33:14.675Z,97335.60
2023-03-12T17:35:42.562Z,97341.80
2023-03-12T17:38:10.229Z,97341.80
2023-03-12T17:40:43.097Z,97339.00
2023-03-12T17:43:10.929Z,97343.20
2023-03-12T17:45:37.676Z,97345.20
2023-03-12T17:48:04.934Z,97343.60
2023-03-12T17:50:31.795Z,97336.20
2023-03-12T17:52:58.466Z,97335.80
2023-03-12T17:55:25.572Z,97328.40
2023-03-12T17:57:52.216Z,97328.60
2023-03-12T18:00:21.554Z,97330.80
2023-03-12T18:02:49.380Z,97334.20
2023-03-12T18:05:16.720Z,97335.40
2023-03-12T18:07:43.363Z,97340.60
2023-03-12T18:10:11.740Z,97352.60
2023-03-12T18:12:40.121Z,97356.00
2023-03-12T18:15:12.378Z,97354.80
2023-03-12T18:17:41.096Z,97358.60
2023-03-12T18:20:09.858Z,97357.00
2023-03-12T18:22:38.770Z,97364.00
2023-03-12T18:25:07.387Z,97367.60
2023-03-12T18:27:34.279Z,97369.80
2023-03-12T18:30:00.907Z,97369.00
2023-03-12T18:32:27.747Z,97369.80
2023-03-12T18:34:54.962Z,97374.80
2023-03-12T18:37:22.667Z,97375.40
2023-03-12T18:39:49.316Z,97375.00
2023-03-12T18:42:15.916Z,97376.00
2023-03-12T18:44:43.304Z,97375.40
2023-03-12T18:47:09.958Z,97378.20
2023-03-12T18:49:36.628Z,97379.20
2023-03-12T18:52:03.209Z,97387.00
2023-03-12T18:54:29.822Z,97393.00
2023-03-12T18:56:56.474Z,97386.40
2023-03-12T18:59:23.670Z,97398.00
2023-03-12T19:01:51.055Z,97398.20
2023-03-12T19:04:19.779Z,97406.60
2023-03-12T19:06:51.303Z,97417.80
2023-03-12T19:09:19.513Z,97423.20
2023-03-12T19:11:48.097Z,97428.80
2023-03-12T19:14:15.241Z,97426.80
2023-03-12T19:16:42.308Z,97414.20
2023-03-12T19:19:09.100Z,97421.80
2023-03-12T19:21:35.716Z,97406.80
2023-03-12T19:24:02.390Z,97409.40
2023-03-12T19:26:29.193Z,97410.40
2023-03-12T19:28:55.877Z,97413.20
2023-03-12T19:31:23.474Z,97412.60
2023-03-12T19:33:50.125Z,97409.40
2023-03-12T19:36:16.982Z,97398.60
2023-03-12T19:38:43.709Z,97395.20
2023-03-12T19:41:11.201Z,97399.20
2023-03-12T19:43:38.330Z,97402.00
2023-03-12T19:46:05.652Z,97396.00
2023-03-12T19:48:33.133Z,97399.20
2023-03-12T19:51:09.339Z,97392.80
2023-03-12T19:53:37.023Z,97391.20
2023-03-12T19:56:05.095Z,97393.20
2023-03-12T19:58:31.627Z,97392.40
2023-03-12T20:01:00.232Z,97389.40
2023-03-12T20:03:28.676Z,97391.60
2023-03-12T20:05:56.460Z,97394.40
2023-03-12T20:08:26.080Z,97394.80
2023-03-12T20:10:52.700Z,97391.20
2023-03-12T20:13:19.556Z,97388.80
2023-03-12T20:15:48.579Z,97382.00
2023-03-12T20:18:16.043Z,97381.00
2023-03-12T20:20:43.246Z,97378.40
2023-03-12T20:23:10.303Z,97382.20
2023-03-12T20:25:43.029Z,97377.60
2023-03-12T20:28:10.969Z,97374.60
2023-03-12T20:30:41.293Z,97369.00
2023-03-12T20:33:08.694Z,97375.20
2023-03-12T20:35:36.626Z,97374.20
2023-03-12T20:38:03.505Z,97377.80
2023-03-12T20:40:30.436Z,97376.00
2023-03-12T20:42:57.162Z,97367.60
2023-03-12T20:45:23.780Z,97367.80
2023-03-12T20:47:51.203Z,97368.00
2023-03-12T20:50:17.922Z,97366.80
2023-03-12T20:52:45.225Z,97367.60
2023-03-12T20:55:11.807Z,97362.80
2023-03-12T20:57:39.497Z,97366.00
2023-03-12T21:00:07.588Z,97363.20
2023-03-12T21:02:34.752Z,97363.60
2023-03-12T21:05:01.739Z,97359.40
2023-03-12T21:07:28.708Z,97356.40
2023-03-12T21:09:55.356Z,97356.20
2023-03-12T21:12:21.977Z,97364.00
2023-03-12T21:14:48.644Z,97372.20
2023-03-12T21:17:15.367Z,97382.60
2023-03-12T21:19:43.268Z,97387.00
2023-03-12T21:22:10.108Z,97379.60
2023-03-12T21:24:36.780Z,97379.20
2023-03-12T21:27:03.641Z,97378.80
2023-03-12T21:29:30.354Z,97389.40
2023-03-12T21:31:57.463Z,97385.40
2023-03-12T21:34:27.042Z,97378.20
2023-03-12T21:36:53.672Z,97391.80
2023-03-12T21:39:20.314Z,97400.00
2023-03-12T21:41:46.953Z,97402.00
2023-03-12T21:44:16.111Z,97394.20
2023-03-12T21:46:43.306Z,97408.60
2023-03-12T21:49:10.129Z,97405.60
2023-03-12T21:51:39.339Z,97414.00
2023-03-12T21:54:06.536Z,97411.00
2023-03-12T21:56:33.198Z,97411.60
2023-03-12T21:59:00.102Z,97408.40
2023-03-12T22:01:27.384Z,97407.20
2023-03-12T22:03:54.492Z,97422.60
2023-03-12T22:06:22.047Z,97431.60
2023-03-12T22:08:49.285Z,97432.00
2023-03-12T22:11:16.583Z,97440.60
2023-03-12T22:13:43.601Z,97434.00
2023-03-12T22:16:13.068Z,97433.20
2023-03-12T22:18:43.016Z,97430.00
2023-03-12T22:21:19.787Z,97437.20
2023-03-12T22:23:53.669Z,97440.00
2023-03-12T22:26:23.391Z,97442.00
2023-03-12T22:28:53.245Z,97443.00
2023-03-12T22:31:22.484Z,97436.60
2023-03-12T22:33:49.743Z,97440.40
2023-03-12T22:36:18.598Z,97439.20
2023-03-12T22:38:47.696Z,97439.20
2023-03-12T22:41:28.560Z,97438.40
2023-03-12T22:44:01.119Z,97433.20
2023-03-12T22:46:28.770Z,97433.60
2023-03-12T22:48:58.949Z,97435.20
2023-03-12T22:51:28.176Z,97437.20
2023-03-12T22:53:55.503Z,97433.20
2023-03-12T22:56:23.037Z,97427.40
2023-03-12T22:58:50.163Z,97428.80
2023-03-12T23:01:23.082Z,97417.60
2023-03-12T23:03:51.207Z,97415.60
2023-03-12T23:06:20.963Z,97412.80
2023-03-12T23:08:48.432Z,97415.40
2023-03-12T23:11:17.869Z,97416.00
2023-03-12T23:13:46.392Z,97411.20
2023-03-12T23:16:20.360Z,97404.00
2023-03-12T23:18:48.443Z,97405.20
2023-03-12T23:21:21.121Z,97409.40
2023-03-12T23:23:49.499Z,97405.60
2023-03-12T23:26:23.836Z,97402.20
2023-03-12T23:28:53.269Z,97403.60
2023-03-12T23:31:20.732Z,97410.40
2023-03-12T23:33:47.695Z,97403.60
2023-03-12T23:36:18.323Z,97406.80
2023-03-12T23:38:47.034Z,97402.60
2023-03-12T23:41:20.748Z,97400.00
2023-03-12T23:43:48.474Z,97395.00
2023-03-12T23:46:19.510Z,97390.20
2023-03-12T23:48:46.975Z,97386.20
2023-03-12T23:51:32.890Z,97385.60
2023-03-12T23:54:05.180Z,97379.40
2023-03-12T23:56:36.684Z,97378.60
2023-03-12T23:59:06.491Z,97372.00
